Latest Weather Observations for Amberley

IDQ60901

Issued at 3:31 pm EST Sunday 26 February 2017 (issued every 10 minutes, with the page automatically refreshed every 10 minutes)

About weather observations | Map of Brisbane area stations | Latest observations for Brisbane area | Other Formats
Station Details ID: 040004 Name: AMBERLEY AMO Lat: -27.63 Lon: 152.71 Height: 24.2 m
Data from the previous 72 hours. | See also: Recent months at Amberley
Date/Time
EST
Temp
°C
App
Temp
°C
Dew
Point
°C
Rel
Hum
%
Delta-T
°C
Wind Press
QNH
hPa
Press
MSL
hPa
Rain since
9am
mm
Dir  Spd
km/h
Gust
km/h
Spd
kts
Gust
kts
26/03:00pm 31.1 27.6 10.3 27 11.9 SE 19 28 10 15 1013.3 1013.2 0.0
26/02:30pm 31.2 28.0 11.9 30 11.3 SE 20 28 11 15 1013.5 1013.4 0.0
26/02:00pm 31.0 28.2 12.6 32 10.9 SE 19 32 10 17 1013.5 1013.4 0.0
26/01:30pm 31.8 28.8 12.6 31 11.4 SE 20 28 11 15 1014.0 1013.9 0.0
26/01:00pm 30.4 27.5 12.4 33 10.6 SE 19 30 10 16 1014.4 1014.3 0.0
26/12:30pm 30.7 29.0 13.7 35 10.2 SE 15 28 8 15 1014.8 1014.7 0.0
26/12:00pm 29.9 27.4 14.2 38 9.5 SSE 20 30 11 16 1015.0 1014.9 0.0
26/11:30am 29.3 29.1 14.8 41 8.8 SE 9 19 5 10 1015.4 1015.3 0.0
26/11:00am 29.1 27.5 15.0 42 8.6 SSE 17 30 9 16 1015.7 1015.6 0.0
26/10:30am 28.6 26.7 15.8 45 7.9 ESE 20 30 11 16 1015.9 1015.8 0.0
26/10:00am 27.5 25.4 15.3 47 7.4 ESE 20 30 11 16 1016.2 1016.1 0.0
26/09:30am 26.3 26.2 16.0 53 6.3 ESE 11 17 6 9 1016.4 1016.3 0.0
26/09:00am 26.1 26.1 16.2 54 6.1 SSE 11 17 6 9 1016.2 1016.1 0.0
26/08:30am 24.0 25.1 17.0 65 4.3 SSW 7 9 4 5 1016.3 1016.2 0.0
26/08:00am 23.1 24.4 17.1 69 3.7 S 6 9 3 5 1016.2 1016.1 0.0
26/07:30am 22.5 23.4 16.6 69 3.6 SSW 7 9 4 5 1015.5 1015.4 0.0
26/07:00am 21.0 22.2 17.4 80 2.2 NW 7 9 4 5 1015.7 1015.6 0.0
26/06:30am 19.7 22.1 16.9 84 1.7 CALM 0 0 0 0 1015.3 1015.2 0.0
26/06:00am 17.9 20.1 16.6 92 0.8 CALM 0 0 0 0 1015.1 1015.0 0.0
26/05:30am 17.8 19.9 16.3 91 0.9 CALM 0 0 0 0 1014.7 1014.6 0.0
26/05:00am 19.0 19.9 16.7 86 1.4 SW 7 11 4 6 1014.4 1014.3 0.0
26/04:30am 18.5 20.7 16.5 88 1.2 CALM 0 0 0 0 1014.2 1014.1 0.0
26/04:00am 18.9 21.1 16.4 85 1.5 CALM 0 0 0 0 1013.9 1013.8 0.0
26/03:30am 18.8 21.3 17.2 90 1.0 CALM 0 0 0 0 1013.9 1013.8 0.0
26/03:00am 18.7 20.9 16.4 86 1.4 CALM 0 0 0 0 1013.9 1013.8 0.0
26/02:30am 18.3 20.3 16.1 87 1.3 CALM 0 0 0 0 1014.1 1014.0 0.0
26/02:00am 18.9 20.9 16.0 83 1.7 CALM 0 0 0 0 1014.4 1014.3 0.0
26/01:30am 19.3 21.3 16.1 82 1.9 CALM 0 0 0 0 1014.3 1014.2 0.0
26/01:00am 20.3 20.2 16.1 77 2.5 S 11 13 6 7 1014.7 1014.6 0.0
26/12:30am 20.0 21.1 16.7 81 2.0 S 6 11 3 6 1015.1 1015.0 0.0
26/12:00am 20.4 22.3 16.6 79 2.3 S 2 6 1 3 1015.6 1015.5 0.0
 
Date/Time
EST
Temp
°C
App
Temp
°C
Dew
Point
°C
Rel
Hum
%
Delta-T
°C
Wind Press
QNH
hPa
Press
MSL
hPa
Rain since
9am
mm
Dir  Spd
km/h
Gust
km/h
Spd
kts
Gust
kts
25/11:30pm 21.3 22.2 16.5 74 2.9 S 7 9 4 5 1015.9 1015.8 0.0
25/11:00pm 21.2 22.9 16.2 73 3.0 SSE 2 9 1 5 1016.2 1016.1 0.0
25/10:30pm 22.0 22.5 16.6 71 3.3 ENE 9 9 5 5 1016.1 1016.0 0.0
25/10:00pm 22.7 22.5 16.6 68 3.7 ESE 13 17 7 9 1016.4 1016.3 0.0
25/09:30pm 23.0 23.8 17.3 70 3.5 ESE 9 11 5 6 1016.2 1016.1 0.0
25/09:00pm 23.8 23.7 17.0 65 4.2 E 13 17 7 9 1015.8 1015.7 0.0
25/08:30pm 24.4 23.5 16.9 63 4.6 E 17 22 9 12 1015.4 1015.3 0.0
25/08:00pm 24.4 24.2 17.7 66 4.2 ENE 15 19 8 10 1015.0 1014.9 0.0
25/07:30pm 25.1 24.5 17.6 63 4.7 ENE 17 26 9 14 1014.5 1014.4 0.0
25/07:00pm 25.7 24.5 17.4 60 5.2 ENE 20 28 11 15 1014.1 1014.0 0.0
25/06:30pm 26.2 24.7 17.6 59 5.4 NE 22 30 12 16 1013.7 1013.6 0.0
25/06:00pm 27.0 24.7 17.6 56 5.9 ENE 26 33 14 18 1013.1 1013.0 0.0
25/05:30pm 27.9 25.5 17.4 52 6.6 ENE 26 35 14 19 1012.7 1012.6 0.0
25/05:00pm 29.2 26.6 17.9 50 7.2 ENE 28 35 15 19 1012.4 1012.3 0.0
25/04:30pm 29.9 27.7 17.8 48 7.7 ENE 26 35 14 19 1012.1 1012.0 0.0
25/04:00pm 30.3 28.8 16.8 44 8.5 ENE 20 32 11 17 1011.9 1011.8 0.0
25/03:30pm 32.6 30.4 12.2 28 12.1 ESE 15 26 8 14 1011.9 1011.8 0.0
25/03:00pm 32.1 29.5 12.1 29 11.8 ESE 17 24 9 13 1012.1 1012.0 0.0
25/02:30pm 32.8 31.9 12.7 29 12.0 S 9 15 5 8 1012.5 1012.4 0.0
25/02:00pm 32.1 31.4 13.1 31 11.4 ENE 9 20 5 11 1012.9 1012.8 0.0
25/01:30pm 31.1 29.6 13.0 33 10.8 SE 13 24 7 13 1013.4 1013.3 0.0
25/01:00pm 30.9 29.5 13.4 34 10.5 E 13 24 7 13 1013.9 1013.8 0.0
25/12:30pm 30.6 29.3 13.6 35 10.2 NE 13 28 7 15 1014.4 1014.3 0.0
25/12:00pm 29.9 28.2 12.3 33 10.3 SE 13 28 7 15 1014.8 1014.7 0.0
25/11:30am 29.6 28.2 13.3 36 9.7 ENE 13 26 7 14 1015.3 1015.2 0.0
25/11:00am 29.3 26.8 13.5 38 9.4 ESE 19 28 10 15 1015.7 1015.6 0.0
25/10:30am 28.3 26.8 14.3 42 8.4 E 15 24 8 13 1016.2 1016.1 0.0
25/10:00am 27.9 26.3 13.8 42 8.4 ESE 15 33 8 18 1016.5 1016.4 0.0
25/09:30am 27.5 27.1 15.3 47 7.4 S 11 19 6 10 1016.8 1016.7 0.0
25/09:00am 25.6 25.2 15.1 52 6.3 SSW 11 17 6 9 1017.0 1016.9 0.0
25/08:30am 25.8 25.4 15.2 52 6.4 SE 11 15 6 8 1016.9 1016.8 0.0
25/08:00am 24.0 25.1 17.0 65 4.3 SSW 7 11 4 6 1017.0 1016.9 0.0
25/07:30am 22.8 24.5 18.0 74 3.0 SSW 6 9 3 5 1017.1 1017.0 0.0
25/07:00am 20.9 22.7 18.2 84 1.7 SSW 6 9 3 5 1016.9 1016.8 0.0
25/06:30am 18.8 21.2 18.0 95 0.5 W 2 7 1 4 1016.7 1016.6 0.0
25/06:00am 18.1 19.9 17.4 96 0.4 SW 4 7 2 4 1016.4 1016.3 0.0
25/05:30am 18.3 20.9 17.5 95 0.5 CALM 0 0 0 0 1016.3 1016.2 0.0
25/05:00am 18.7 21.4 17.7 94 0.6 CALM 0 0 0 0 1016.1 1016.0 0.0
25/04:30am 19.0 21.8 17.9 93 0.7 CALM 0 0 0 0 1015.9 1015.8 0.0
25/04:00am 18.9 20.5 17.8 93 0.7 SW 6 9 3 5 1015.8 1015.7 0.0
25/03:30am 18.9 21.7 17.9 94 0.6 CALM 0 0 0 0 1015.6 1015.5 0.0
25/03:00am 18.2 20.7 17.2 94 0.6 CALM 0 0 0 0 1015.5 1015.4 0.0
25/02:30am 18.4 20.8 17.1 92 0.8 CALM 0 0 0 0 1015.4 1015.3 0.0
25/02:00am 19.0 21.2 17.4 90 1.0 SSW 2 7 1 4 1015.5 1015.4 0.0
25/01:30am 19.2 20.0 17.4 89 1.1 SSW 9 11 5 6 1015.7 1015.6 0.0
25/01:00am 19.3 20.6 17.5 89 1.1 S 7 7 4 4 1015.8 1015.7 0.0
25/12:30am 19.8 20.7 17.5 86 1.4 SSW 9 9 5 5 1015.9 1015.8 0.0
25/12:00am 20.8 21.8 17.7 82 1.9 SSW 9 9 5 5 1016.1 1016.0 0.0
 
Date/Time
EST
Temp
°C
App
Temp
°C
Dew
Point
°C
Rel
Hum
%
Delta-T
°C
Wind Press
QNH
hPa
Press
MSL
hPa
Rain since
9am
mm
Dir  Spd
km/h
Gust
km/h
Spd
kts
Gust
kts
24/11:30pm 21.2 22.3 18.0 82 2.0 S 9 9 5 5 1016.4 1016.3 0.0
24/11:00pm 21.7 23.4 18.0 79 2.3 ESE 6 7 3 4 1016.5 1016.4 0.0
24/10:30pm 23.0 23.8 18.2 74 3.0 E 11 15 6 8 1016.7 1016.6 0.0
24/10:00pm 23.4 23.8 18.1 72 3.3 ENE 13 17 7 9 1016.5 1016.4 0.0
24/09:30pm 23.6 23.3 18.2 71 3.4 ENE 17 26 9 14 1016.6 1016.5 0.0
24/09:00pm 23.9 23.2 18.3 71 3.5 ENE 19 28 10 15 1016.7 1016.6 0.0
24/08:30pm 24.2 23.3 18.2 69 3.8 ENE 20 32 11 17 1016.8 1016.7 0.0
24/08:00pm 24.4 22.2 17.8 66 4.1 ENE 26 32 14 17 1016.5 1016.4 0.0
24/07:30pm 24.6 22.5 17.2 63 4.6 ENE 24 33 13 18 1016.2 1016.1 0.0
24/07:00pm 25.4 23.6 17.0 59 5.2 ENE 22 33 12 18 1015.9 1015.8 0.0
24/06:30pm 26.1 23.8 16.7 56 5.8 ENE 24 32 13 17 1015.6 1015.5 0.0
24/06:00pm 27.2 24.9 16.7 52 6.5 ENE 24 32 13 17 1015.1 1015.0 0.0
24/05:30pm 28.3 25.4 16.2 47 7.5 ENE 26 33 14 18 1014.8 1014.7 0.0
24/05:00pm 29.8 26.5 16.1 43 8.5 ENE 28 35 15 19 1014.6 1014.5 0.0
24/04:30pm 30.9 28.0 15.1 38 9.7 NE 24 35 13 19 1014.2 1014.1 0.0
24/04:00pm 31.6 29.3 14.6 35 10.4 NE 20 32 11 17 1014.2 1014.1 0.0
24/03:30pm 31.8 29.1 13.5 32 11.0 NE 20 30 11 16 1014.2 1014.1 0.0
24/03:00pm 32.0 29.6 13.8 33 11.0 NE 19 30 10 16 1014.3 1014.2 0.0
24/02:30pm 31.8 31.1 14.2 34 10.7 E 11 28 6 15 1014.7 1014.6 0.0
24/02:00pm 31.2 29.6 13.8 34 10.5 NE 15 30 8 16 1015.0 1014.9 0.0
24/01:30pm 32.1 29.7 14.4 34 10.8 ENE 20 28 11 15 1015.4 1015.3 0.0
24/01:00pm 30.4 29.0 13.5 35 10.1 NNE 13 22 7 12 1015.9 1015.8 0.0
24/12:30pm 30.4 29.9 14.8 38 9.5 ESE 11 20 6 11 1016.3 1016.2 0.0
24/12:00pm 29.7 28.2 14.1 38 9.4 NNE 15 26 8 14 1017.0 1016.9 0.0
24/11:30am 28.8 27.7 15.4 44 8.2 ENE 15 28 8 15 1017.4 1017.3 0.0
24/11:00am 28.9 28.6 15.5 44 8.2 SE 11 17 6 9 1018.0 1017.9 0.0
24/10:30am 27.9 27.0 15.8 47 7.4 ENE 15 26 8 14 1018.4 1018.3 0.0
24/10:00am 27.8 26.7 15.3 46 7.6 ESE 15 24 8 13 1018.5 1018.4 0.0
24/09:30am 26.9 26.1 15.2 48 7.1 ESE 13 26 7 14 1018.8 1018.7 0.0
24/09:00am 26.6 26.0 15.6 50 6.7 SE 13 22 7 12 1018.9 1018.8 0.0
24/08:30am 25.3 25.9 16.9 59 5.2 S 9 17 5 9 1018.9 1018.8 0.0
24/08:00am 23.8 24.6 17.2 66 4.1 SSW 9 13 5 7 1018.8 1018.7 0.0
24/07:30am 21.3 22.6 17.6 79 2.3 S 7 11 4 6 1018.6 1018.5 0.0
24/07:00am 20.0 20.6 16.9 82 1.9 SSW 9 13 5 7 1018.6 1018.5 0.0
24/06:30am 18.0 18.7 16.1 89 1.1 SW 7 9 4 5 1018.3 1018.2 0.0
24/06:00am 17.2 17.4 15.7 91 0.9 SSW 9 11 5 6 1017.9 1017.8 0.0
24/05:30am 17.6 17.9 15.9 90 1.0 SW 9 11 5 6 1017.5 1017.4 0.0
24/05:00am 16.5 17.5 15.3 93 0.7 SW 4 7 2 4 1017.3 1017.2 0.0
24/04:30am 16.8 18.2 15.4 91 0.8 SW 2 7 1 4 1017.1 1017.0 0.0
24/04:00am 17.8 18.1 16.1 90 1.0 SW 9 11 5 6 1017.1 1017.0 0.0
24/03:30am 16.8 18.5 16.1 96 0.4 SSW 2 7 1 4 1017.2 1017.1 0.0
24/03:00am 17.2 19.0 16.5 96 0.4 W 2 9 1 5 1017.3 1017.2 0.0
24/02:30am 17.3 19.5 16.5 95 0.5 CALM 0 0 0 0 1017.4 1017.3 0.0
24/02:00am 17.7 20.0 16.7 94 0.6 CALM 0 0 0 0 1017.4 1017.3 0.0
24/01:30am 18.0 20.3 16.8 93 0.7 CALM 0 0 0 0 1017.7 1017.6 0.0
24/01:00am 18.2 20.6 16.9 92 0.8 CALM 0 0 0 0 1017.8 1017.7 0.0
24/12:30am 19.7 22.0 16.7 83 1.8 CALM 0 0 0 0 1018.1 1018.0 0.0
24/12:00am 20.6 21.6 16.8 79 2.3 S 7 9 4 5 1018.2 1018.1 0.0
 
Date/Time
EST
Temp
°C
App
Temp
°C
Dew
Point
°C
Rel
Hum
%
Delta-T
°C
Wind Press
QNH
hPa
Press
MSL
hPa
Rain since
9am
mm
Dir  Spd
km/h
Gust
km/h
Spd
kts
Gust
kts
23/11:30pm 20.9 22.0 17.0 78 2.4 SSW 7 9 4 5 1018.5 1018.4 0.0
23/11:00pm 21.2 22.4 17.3 78 2.4 S 7 9 4 5 1018.7 1018.6 0.0
23/10:30pm 21.2 21.9 17.1 77 2.5 ESE 9 11 5 6 1018.7 1018.6 0.0
23/10:00pm 21.9 22.7 17.3 75 2.8 ESE 9 11 5 6 1018.9 1018.8 0.0
23/09:30pm 23.2 24.0 17.4 70 3.6 E 9 13 5 7 1018.7 1018.6 0.0
23/09:00pm 23.7 23.4 17.4 68 3.9 ENE 15 20 8 11 1018.6 1018.5 0.0
23/08:30pm 23.9 23.3 17.5 67 4.0 ENE 17 20 9 11 1018.5 1018.4 0.0
23/08:00pm 24.4 23.7 17.3 64 4.4 ENE 17 20 9 11 1018.3 1018.2 0.0
23/07:30pm 24.9 24.1 17.0 61 4.9 ENE 17 26 9 14 1018.0 1017.9 0.0
23/07:00pm 25.4 23.8 16.6 58 5.4 ENE 20 30 11 16 1017.7 1017.6 0.0
23/06:30pm 26.1 24.6 16.7 56 5.8 ENE 20 30 11 16 1017.2 1017.1 0.0
23/06:00pm 27.2 25.1 16.2 51 6.8 ENE 22 30 12 16 1016.8 1016.7 0.0
23/05:30pm 28.3 25.5 15.4 45 7.9 ENE 24 30 13 16 1016.5 1016.4 0.0
23/05:00pm 28.8 26.2 15.8 45 8.0 ENE 24 33 13 18 1016.2 1016.1 0.0
23/04:30pm 29.5 27.2 15.7 43 8.5 ENE 22 32 12 17 1015.9 1015.8 0.0
23/04:00pm 30.1 27.6 16.1 42 8.7 ENE 24 33 13 18 1015.8 1015.7 0.0

Latest Capital City Observations: Canberra | Sydney | Melbourne | Brisbane | Adelaide | Perth | Hobart | Darwin

Other Formats:

Comma delimited format used in spreadsheet applications
http://www.bom.gov.au/fwo/IDQ60901/IDQ60901.94568.axf

JavaScript Object Notation format (JSON) in row-major order
http://www.bom.gov.au/fwo/IDQ60901/IDQ60901.94568.json